Time;durP1;ratioP1;P1;durP2;ratioP2;P2;SDS_P1;SDS_P2;PMS_P1;PMS_P2;Temp;Humidity;BMP_temperature;BMP_pressure;BME280_temperature;BME280_humidity;BME280_pressure;Samples;Min_cycle;Max_cycle;Signal;HPM_P1;HPM_P2
2022/03/09 07:25:45;;;;;;;;;42.50;37.75;;;;;11.59;100.00;101718.66;6313020;22;46231;-96
2022/03/09 07:28:11;;;;;;;;;55.75;41.00;;;;;11.70;100.00;101726.25;6359304;22;45252;-93
2022/03/09 07:30:36;;;;;;;;;45.75;39.75;;;;;11.78;100.00;101726.66;6329791;22;45544;-90
2022/03/09 07:33:01;;;;;;;;;46.00;39.50;;;;;11.91;100.00;101733.53;6333936;22;45375;-93
2022/03/09 07:35:27;;;;;;;;;45.25;39.50;;;;;12.03;100.00;101734.22;6331945;22;47156;-91
2022/03/09 07:37:52;;;;;;;;;39.75;35.50;;;;;12.09;100.00;101735.34;6332238;22;46486;-95
2022/03/09 07:40:18;;;;;;;;;46.75;36.75;;;;;12.19;100.00;101732.44;6360738;22;45422;-94
2022/03/09 07:42:43;;;;;;;;;42.75;37.25;;;;;12.27;100.00;101741.69;6360213;22;45254;-94
2022/03/09 07:45:09;;;;;;;;;48.50;40.25;;;;;12.37;100.00;101742.19;6362442;22;47241;-95
2022/03/09 07:47:36;;;;;;;;;41.50;35.00;;;;;12.45;100.00;101732.94;6363133;22;45417;-95
2022/03/09 07:50:03;;;;;;;;;41.50;34.75;;;;;12.54;100.00;101745.72;6346862;22;44677;-94
2022/03/09 07:52:29;;;;;;;;;39.25;35.25;;;;;12.62;100.00;101747.03;6336351;22;45263;-95
2022/03/09 07:54:54;;;;;;;;;44.50;37.25;;;;;12.78;100.00;101746.94;6363748;22;48412;-94
2022/03/09 07:57:19;;;;;;;;;42.50;37.00;;;;;12.88;100.00;101741.34;6363697;22;45804;-96
2022/03/09 07:59:45;;;;;;;;;39.50;31.75;;;;;13.04;100.00;101747.41;6364570;22;45326;-94
2022/03/09 08:02:10;;;;;;;;;34.25;29.00;;;;;13.17;100.00;101756.81;6363574;22;45787;-93
2022/03/09 08:04:36;;;;;;;;;36.00;31.75;;;;;13.24;100.00;101751.03;6363406;22;47693;-95
2022/03/09 08:07:01;;;;;;;;;43.25;31.75;;;;;13.37;100.00;101751.66;6336999;22;45217;-94
2022/03/09 08:09:26;;;;;;;;;32.25;28.50;;;;;13.45;100.00;101750.28;6363643;22;45315;-95
2022/03/09 08:11:52;;;;;;;;;39.75;32.25;;;;;13.58;100.00;101757.09;6337666;22;45212;-94
2022/03/09 08:14:17;;;;;;;;;32.75;28.25;;;;;13.60;100.00;101747.56;6364129;22;47418;-93
2022/03/09 08:16:42;;;;;;;;;37.75;32.00;;;;;13.70;100.00;101755.91;6340340;22;45691;-94
2022/03/09 08:19:08;;;;;;;;;38.50;31.00;;;;;13.77;100.00;101757.09;6336962;22;45334;-95
2022/03/09 08:21:33;;;;;;;;;35.25;30.25;;;;;13.79;100.00;101759.00;6363426;22;45315;-94
2022/03/09 08:23:59;;;;;;;;;36.00;30.75;;;;;13.80;100.00;101762.53;6335877;22;46888;-94
2022/03/09 08:26:25;;;;;;;;;34.00;29.25;;;;;13.84;100.00;101762.75;6356353;22;45574;-96
2022/03/09 08:28:50;;;;;;;;;31.00;25.00;;;;;13.87;100.00;101769.00;6360885;22;45415;-95
2022/03/09 08:31:17;;;;;;;;;40.50;32.25;;;;;13.89;100.00;101764.72;6332560;22;45336;-93
2022/03/09 08:33:42;;;;;;;;;35.75;27.50;;;;;13.89;100.00;101770.00;6360483;22;47268;-95
2022/03/09 08:36:07;;;;;;;;;25.25;23.50;;;;;13.97;100.00;101768.63;6362114;22;45545;-95
2022/03/09 08:38:33;;;;;;;;;31.75;26.50;;;;;14.03;100.00;101768.94;6360759;22;45250;-95
2022/03/09 08:40:59;;;;;;;;;29.00;23.00;;;;;14.05;100.00;101769.91;6335956;22;45357;-96
2022/03/09 08:43:24;;;;;;;;;27.00;21.25;;;;;14.14;100.00;101768.53;6336917;22;46781;-94
2022/03/09 08:45:50;;;;;;;;;26.25;22.00;;;;;14.16;100.00;101765.13;6362418;22;45189;-96
2022/03/09 08:48:15;;;;;;;;;22.75;19.50;;;;;14.21;100.00;101769.72;6362629;22;45264;-96
2022/03/09 08:50:40;;;;;;;;;29.00;23.75;;;;;14.25;100.00;101767.28;6336119;22;45651;-95
2022/03/09 08:53:06;;;;;;;;;29.75;23.50;;;;;14.35;100.00;101773.00;6360864;22;46948;-96
2022/03/09 08:55:32;;;;;;;;;22.75;22.50;;;;;14.43;100.00;101773.38;6361686;22;45344;-95
2022/03/09 08:57:57;;;;;;;;;24.25;22.00;;;;;14.51;100.00;101778.16;6335781;22;45087;-95
2022/03/09 09:00:23;;;;;;;;;26.00;25.00;;;;;14.57;100.00;101776.63;6363436;22;45287;-96
2022/03/09 09:02:49;;;;;;;;;27.00;26.00;;;;;14.67;100.00;101778.84;6362912;22;46956;-95
2022/03/09 09:05:14;;;;;;;;;26.75;23.25;;;;;14.68;100.00;101778.03;6361763;22;45311;-96
2022/03/09 09:07:40;;;;;;;;;28.00;22.25;;;;;14.59;100.00;101775.84;6362114;22;45268;-96
2022/03/09 09:10:07;;;;;;;;;21.50;19.25;;;;;14.57;100.00;101784.56;6362292;22;45216;-94
2022/03/09 09:12:33;;;;;;;;;27.75;24.25;;;;;14.57;100.00;101781.91;6332949;22;47522;-94
2022/03/09 09:14:58;;;;;;;;;20.00;18.00;;;;;14.63;100.00;101774.28;6334230;22;45275;-94
2022/03/09 09:17:24;;;;;;;;;18.33;16.67;;;;;14.74;100.00;101780.94;6335923;22;45368;-96
2022/03/09 09:19:49;;;;;;;;;26.25;25.50;;;;;14.87;100.00;101760.34;6368148;22;45169;-96
2022/03/09 09:22:14;;;;;;;;;22.50;19.75;;;;;15.04;100.00;101769.03;6337504;22;46836;-95
2022/03/09 09:26:34;;;;;;;;;26.50;22.00;;;;;15.02;100.00;101767.16;5124014;27;45363;-96
2022/03/09 09:28:59;;;;;;;;;25.25;20.75;;;;;15.08;100.00;101770.97;5074567;27;45459;-96
2022/03/09 09:31:25;;;;;;;;;24.00;24.00;;;;;15.00;100.00;101764.44;5086023;27;45727;-95
2022/03/09 09:33:50;;;;;;;;;22.00;19.50;;;;;15.02;100.00;101762.78;5092734;27;45289;-96
2022/03/09 09:36:16;;;;;;;;;22.75;19.75;;;;;15.05;100.00;101754.09;5060230;28;48357;-96
2022/03/09 09:38:41;;;;;;;;;19.00;16.33;;;;;15.09;100.00;101756.03;5068505;27;45514;-96
2022/03/09 09:41:10;;;;;;;;;23.00;20.00;;;;;15.23;100.00;101766.28;5089640;27;45506;-96
2022/03/09 09:43:37;;;;;;;;;17.00;13.33;;;;;15.29;100.00;101764.78;5085934;27;45414;-96
2022/03/09 09:46:03;;;;;;;;;19.67;18.33;;;;;15.22;100.00;101756.53;5095531;27;47030;-96
2022/03/09 09:48:28;;;;;;;;;17.75;17.00;;;;;15.30;100.00;101758.69;5118642;27;46109;-96
2022/03/09 09:50:54;;;;;;;;;18.33;15.00;;;;;15.36;100.00;101755.38;5087461;27;45403;-96
2022/03/09 09:53:22;;;;;;;;;14.67;14.33;;;;;15.52;100.00;101761.28;5093303;27;45697;-96
2022/03/09 09:55:47;;;;;;;;;19.00;14.67;;;;;15.49;100.00;101751.50;5119828;27;47218;-95
2022/03/09 09:58:14;;;;;;;;;17.00;16.00;;;;;15.65;100.00;101746.81;5099141;27;45574;-94
2022/03/09 10:00:42;;;;;;;;;15.67;13.00;;;;;15.70;100.00;101753.22;5067640;28;45370;-96
2022/03/09 10:03:07;;;;;;;;;17.00;15.00;;;;;15.85;100.00;101752.00;5071497;27;45610;-95
2022/03/09 10:05:33;;;;;;;;;14.67;13.67;;;;;15.97;100.00;101757.81;5077489;27;47224;-95
2022/03/09 10:08:05;;;;;;;;;16.67;16.67;;;;;16.24;100.00;101753.53;5083232;27;45502;-96
2022/03/09 10:10:31;;;;;;;;;14.50;12.25;;;;;16.40;100.00;101752.38;5080386;27;45612;-96
2022/03/09 10:13:15;;;;;;;;;18.33;17.33;;;;;16.65;100.00;101755.00;5056377;28;45360;-95
2022/03/09 10:15:41;;;;;;;;;18.67;14.67;;;;;16.65;100.00;101755.00;5104955;27;47753;-96
2022/03/09 10:18:22;;;;;;;;;12.33;10.67;;;;;16.90;100.00;101742.66;5096067;27;45327;-96
2022/03/09 10:20:50;;;;;;;;;16.33;14.00;;;;;16.82;100.00;101753.00;5086165;27;45467;-95
2022/03/09 10:23:21;;;;;;;;;15.67;13.00;;;;;16.73;100.00;101750.91;5075872;27;45428;-96
2022/03/09 10:25:48;;;;;;;;;16.00;16.00;;;;;16.51;100.00;101742.19;5045159;28;47334;-93
2022/03/09 10:28:13;;;;;;;;;15.33;14.00;;;;;16.40;100.00;101751.47;5036285;28;45500;-94
2022/03/09 10:30:41;;;;;;;;;15.00;12.67;;;;;16.42;100.00;101750.69;5060826;28;45187;-95
2022/03/09 10:33:09;;;;;;;;;18.33;15.67;;;;;16.29;100.00;101736.06;5071603;27;45453;-94
2022/03/09 10:35:34;;;;;;;;;15.00;15.00;;;;;16.23;100.00;101737.59;5037967;28;47225;-95
2022/03/09 10:38:05;;;;;;;;;16.00;12.67;;;;;16.19;100.00;101729.53;5037285;28;45508;-95
2022/03/09 10:40:38;;;;;;;;;14.00;12.00;;;;;16.16;100.00;101731.16;5040852;28;45426;-95
2022/03/09 10:43:18;;;;;;;;;13.67;10.00;;;;;16.29;100.00;101728.13;5069567;28;45532;-95
2022/03/09 10:46:12;;;;;;;;;15.33;11.33;;;;;16.56;100.00;101742.34;5047846;28;48367;-95
2022/03/09 10:48:56;;;;;;;;;18.33;13.33;;;;;16.62;100.00;101737.25;5049559;28;46269;-96
2022/03/09 10:51:40;;;;;;;;;14.33;14.33;;;;;16.69;100.00;101735.75;5052096;28;45566;-95
2022/03/09 10:54:16;;;;;;;;;10.67;10.67;;;;;16.75;100.00;101738.59;5037326;28;45330;-95
2022/03/09 10:56:43;;;;;;;;;19.33;15.67;;;;;16.88;100.00;101736.38;5046827;28;47485;-95
2022/03/09 10:59:11;;;;;;;;;15.67;15.67;;;;;17.20;100.00;101736.63;5041769;28;45675;-96
2022/03/09 11:01:37;;;;;;;;;18.00;13.67;;;;;17.58;100.00;101732.53;5025113;28;45388;-95
2022/03/09 11:04:12;;;;;;;;;17.67;16.00;;;;;18.26;100.00;101734.59;5017227;28;45509;-95
2022/03/09 11:06:42;;;;;;;;;14.33;12.33;;;;;18.53;100.00;101731.81;5047530;28;45560;-94
2022/03/09 11:09:09;;;;;;;;;14.00;12.33;;;;;18.66;100.00;101724.16;5050363;28;45582;-94
2022/03/09 11:11:38;;;;;;;;;15.67;12.00;;;;;18.92;100.00;101731.03;5044002;27;45652;-94
2022/03/09 11:14:04;;;;;;;;;12.33;11.00;;;;;18.82;100.00;101730.81;5025446;28;45463;-95
2022/03/09 11:16:30;;;;;;;;;15.67;12.33;;;;;18.67;100.00;101725.06;5036101;28;48082;-96
2022/03/09 11:18:57;;;;;;;;;12.33;12.00;;;;;18.48;100.00;101727.22;5059367;28;45985;-95
2022/03/09 11:21:22;;;;;;;;;10.00;10.00;;;;;18.28;100.00;101719.56;5057990;28;45513;-95
2022/03/09 11:23:48;;;;;;;;;16.67;13.33;;;;;18.24;100.00;101721.25;5052082;28;45530;-95
2022/03/09 11:26:19;;;;;;;;;12.00;11.67;;;;;18.22;100.00;101727.38;5056948;28;49689;-95
2022/03/09 11:28:45;;;;;;;;;13.67;12.67;;;;;18.19;100.00;101712.22;5070692;28;45778;-95
2022/03/09 11:31:13;;;;;;;;;13.00;10.00;;;;;18.34;100.00;101708.22;5089223;27;45541;-94
2022/03/09 11:33:48;;;;;;;;;15.33;14.33;;;;;18.43;100.00;101717.38;5086246;27;45426;-94
2022/03/09 11:36:22;;;;;;;;;17.00;13.33;;;;;18.35;100.00;101707.38;5050028;28;47158;-95
2022/03/09 11:38:48;;;;;;;;;10.67;8.67;;;;;18.15;100.00;101694.38;5051018;28;45976;-95
2022/03/09 11:41:14;;;;;;;;;17.67;15.67;;;;;18.19;100.00;101704.25;5050512;28;45623;-95
2022/03/09 11:43:40;;;;;;;;;12.00;10.00;;;;;18.23;100.00;101692.88;5076276;27;45405;-96
2022/03/09 11:46:05;;;;;;;;;11.67;11.67;;;;;18.23;100.00;101687.56;5069006;28;48969;-96
2022/03/09 11:48:52;;;;;;;;;12.00;11.67;;;;;18.46;100.00;101694.38;5070263;28;46071;-95
2022/03/09 11:51:20;;;;;;;;;17.00;16.67;;;;;18.42;100.00;101686.34;5035655;28;45387;-95
2022/03/09 11:53:54;;;;;;;;;14.33;13.00;;;;;18.54;100.00;101683.13;5052043;28;45330;-96
2022/03/09 11:56:41;;;;;;;;;12.00;12.00;;;;;18.68;100.00;101681.69;5053205;28;45489;-95
2022/03/09 11:59:07;;;;;;;;;16.00;13.67;;;;;18.67;100.00;101677.22;5065064;28;45516;-95
2022/03/09 12:01:58;;;;;;;;;15.67;15.33;;;;;18.79;100.00;101676.63;5056762;28;45461;-96
2022/03/09 12:04:39;;;;;;;;;12.00;11.00;;;;;18.87;100.00;101683.06;5041977;28;45335;-95
2022/03/09 12:07:05;;;;;;;;;12.00;12.00;;;;;18.77;100.00;101673.94;5061982;28;47201;-95
2022/03/09 12:09:59;;;;;;;;;8.00;8.00;;;;;19.01;100.00;101669.22;5081487;27;45429;-95
2022/03/09 12:12:27;;;;;;;;;13.67;11.00;;;;;19.01;100.00;101670.13;5098614;27;45377;-96
2022/03/09 12:15:13;;;;;;;;;12.00;11.00;;;;;19.17;100.00;101666.06;5036083;28;45636;-96
2022/03/09 12:17:44;;;;;;;;;12.00;12.00;;;;;19.20;100.00;101662.59;5054374;28;47162;-95
2022/03/09 12:20:20;;;;;;;;;13.00;10.00;;;;;19.41;100.00;101669.28;5068962;28;45357;-95
2022/03/09 12:23:01;;;;;;;;;11.00;9.33;;;;;19.55;100.00;101672.28;5063579;28;45357;-95
2022/03/09 12:25:48;;;;;;;;;11.00;11.00;;;;;19.70;100.00;101654.84;5062272;28;45540;-96
2022/03/09 12:28:28;;;;;;;;;11.00;10.67;;;;;19.85;100.00;101651.63;5045815;28;51771;-95
2022/03/09 12:30:53;;;;;;;;;11.67;11.67;;;;;20.00;100.00;101661.69;5054024;28;46054;-96
2022/03/09 12:33:25;;;;;;;;;15.33;13.00;;;;;20.35;100.00;101641.09;5080179;27;45503;-95
2022/03/09 12:35:52;;;;;;;;;14.33;11.67;;;;;20.53;100.00;101638.75;5059031;28;45404;-95
2022/03/09 12:38:18;;;;;;;;;14.00;13.67;;;;;20.86;100.00;101641.09;5066996;28;47552;-95
2022/03/09 12:40:47;;;;;;;;;16.00;12.00;;;;;21.08;100.00;101634.34;5060604;27;45347;-95
2022/03/09 12:43:13;;;;;;;;;13.00;12.00;;;;;21.02;100.00;101641.38;5049432;28;45400;-95
2022/03/09 12:45:54;;;;;;;;;12.67;12.67;;;;;21.43;100.00;101637.53;5067227;28;45491;-95
2022/03/09 12:48:22;;;;;;;;;12.00;9.67;;;;;21.49;100.00;101629.59;5088132;27;47174;-93
2022/03/09 12:50:48;;;;;;;;;12.33;9.33;;;;;21.46;100.00;101613.53;5055336;28;45854;-95
2022/03/09 12:53:20;;;;;;;;;14.33;11.00;;;;;21.56;100.00;101625.25;5052908;28;44804;-94
2022/03/09 12:55:49;;;;;;;;;9.67;9.67;;;;;21.59;100.00;101621.72;5087034;27;45421;-94
2022/03/09 12:58:22;;;;;;;;;10.67;9.33;;;;;21.74;100.00;101624.59;5062405;28;47379;-95
2022/03/09 13:00:58;;;;;;;;;11.00;10.67;;;;;21.68;100.00;101616.47;5063234;28;45820;-95
2022/03/09 13:03:24;;;;;;;;;11.00;11.00;;;;;21.67;100.00;101612.03;5087975;27;45415;-96
2022/03/09 13:05:49;;;;;;;;;11.67;9.00;;;;;21.68;100.00;101618.25;5051928;28;45439;-94
2022/03/09 13:08:16;;;;;;;;;12.67;10.33;;;;;21.71;100.00;101624.53;5056267;28;49209;-92
2022/03/09 13:10:44;;;;;;;;;13.67;11.33;;;;;21.81;100.00;101619.31;5066408;28;44904;-95
2022/03/09 13:13:10;;;;;;;;;11.67;10.00;;;;;21.82;100.00;101615.78;5063723;28;45436;-91
2022/03/09 13:15:35;;;;;;;;;13.33;12.00;;;;;21.92;100.00;101611.47;5056540;28;45332;-94
2022/03/09 13:18:01;;;;;;;;;15.00;12.00;;;;;21.95;100.00;101598.13;5096437;27;48157;-95
2022/03/09 13:20:44;;;;;;;;;11.00;11.00;;;;;22.05;100.00;101613.41;5068545;28;45092;-96
2022/03/09 13:23:43;;;;;;;;;14.67;12.67;;;;;21.96;100.00;101603.50;5068429;28;45333;-96
2022/03/09 13:26:26;;;;;;;;;12.33;11.67;;;;;21.95;100.00;101596.38;5072953;28;45187;-96
2022/03/09 13:29:01;;;;;;;;;12.00;8.00;;;;;21.80;100.00;101575.66;5056332;28;46605;-92
2022/03/09 13:36:30;;;;;;;;;11.67;11.33;;;;;21.63;100.00;101594.16;5038182;28;47032;-95
2022/03/09 13:38:58;;;;;;;;;9.33;9.00;;;;;21.55;100.00;101578.94;5016548;28;47255;-96
2022/03/09 13:41:25;;;;;;;;;8.67;8.67;;;;;21.43;100.00;101577.00;5024781;28;45496;-94
2022/03/09 13:43:51;;;;;;;;;13.33;11.67;;;;;21.50;100.00;101587.75;5019270;28;45401;-93
2022/03/09 13:46:19;;;;;;;;;11.33;8.67;;;;;21.70;100.00;101585.34;5022108;28;45357;-96
2022/03/09 13:48:45;;;;;;;;;8.00;8.00;;;;;21.84;100.00;101576.59;5018319;28;47383;-96
2022/03/09 13:51:11;;;;;;;;;8.33;8.33;;;;;22.20;100.00;101583.25;5030772;28;45302;-96
2022/03/09 13:53:40;;;;;;;;;8.00;8.00;;;;;22.17;100.00;101587.66;5026051;28;45249;-95
2022/03/09 13:56:20;;;;;;;;;12.00;8.67;;;;;22.01;100.00;101578.63;5035953;28;45471;-96
2022/03/09 13:58:46;;;;;;;;;14.00;14.00;;;;;21.72;100.00;101582.69;5049658;28;47964;-96
2022/03/09 14:01:15;;;;;;;;;8.33;7.00;;;;;21.59;100.00;101581.66;5016564;28;45357;-94
2022/03/09 14:03:46;;;;;;;;;13.00;10.00;;;;;21.59;100.00;101581.66;5026527;28;45405;-96
2022/03/09 14:06:15;;;;;;;;;8.33;8.33;;;;;21.51;100.00;101582.47;5045769;28;45341;-96
2022/03/09 14:08:40;;;;;;;;;10.00;10.00;;;;;21.61;100.00;101574.56;5028034;28;47270;-96
2022/03/09 14:11:08;;;;;;;;;9.67;8.33;;;;;22.17;100.00;101575.19;5020198;28;45428;-96
2022/03/09 14:13:34;;;;;;;;;9.00;8.00;;;;;22.72;100.00;101573.03;5016964;28;45531;-96
2022/03/09 14:15:59;;;;;;;;;7.67;7.67;;;;;23.41;100.00;101556.47;5023031;28;45456;-96
2022/03/09 14:18:26;;;;;;;;;11.33;10.00;;;;;23.88;100.00;101562.94;5028113;28;48146;-96
2022/03/09 14:20:52;;;;;;;;;8.67;8.33;;;;;24.21;100.00;101556.72;5040863;28;46071;-96
2022/03/09 14:23:17;;;;;;;;;14.33;12.67;;;;;25.37;100.00;101550.34;5024550;28;45360;-96
2022/03/09 14:25:42;;;;;;;;;11.67;9.00;;;;;27.14;100.00;101548.22;5020858;28;45462;-95
2022/03/09 14:28:08;;;;;;;;;11.67;11.67;;;;;27.13;100.00;101551.81;5021156;28;47294;-96
2022/03/09 14:30:33;;;;;;;;;13.00;11.67;;;;;26.45;100.00;101555.13;5028702;28;45794;-96
2022/03/09 14:32:59;;;;;;;;;9.00;9.00;;;;;26.77;100.00;101559.34;5023502;28;45477;-95
2022/03/09 14:35:25;;;;;;;;;10.33;10.33;;;;;27.05;100.00;101550.06;5050616;28;45430;-96
2022/03/09 14:37:53;;;;;;;;;10.33;10.33;;;;;26.41;100.00;101548.88;5055119;28;47356;-96
2022/03/09 14:40:20;;;;;;;;;13.33;12.00;;;;;25.64;100.00;101543.09;5019786;28;45659;-96
2022/03/09 14:42:45;;;;;;;;;16.67;12.00;;;;;25.14;100.00;101552.22;5024186;28;45450;-96
2022/03/09 14:45:13;;;;;;;;;14.00;14.00;;;;;24.83;100.00;101553.16;5029207;28;45348;-96
2022/03/09 14:47:38;;;;;;;;;13.33;11.33;;;;;24.49;100.00;101543.34;5051773;28;48413;-95
2022/03/09 14:50:04;;;;;;;;;11.67;10.67;;;;;24.13;100.00;101542.41;5018065;28;45660;-94
2022/03/09 14:52:30;;;;;;;;;12.33;12.33;;;;;23.70;100.00;101541.44;5024365;28;45385;-94
2022/03/09 14:54:56;;;;;;;;;11.33;11.33;;;;;23.32;100.00;101546.63;5037896;28;45351;-95
2022/03/09 14:57:21;;;;;;;;;13.33;10.67;;;;;22.94;100.00;101541.06;5054637;28;47377;-95
2022/03/09 14:59:46;;;;;;;;;15.00;11.00;;;;;22.61;100.00;101537.25;5035720;28;45486;-95
2022/03/09 15:02:12;;;;;;;;;11.67;11.67;;;;;22.30;100.00;101538.78;5024509;28;45506;-93
2022/03/09 15:04:38;;;;;;;;;15.00;13.00;;;;;21.95;100.00;101545.59;5051754;28;45376;-96
2022/03/09 15:07:05;;;;;;;;;16.00;14.00;;;;;21.75;100.00;101529.31;5063248;28;47944;-96
2022/03/09 15:09:31;;;;;;;;;18.00;14.67;;;;;;;;5034595;28;45667;-94
2022/03/09 15:11:57;;;;;;;;;12.00;12.00;;;;;21.61;100.00;101548.75;5032625;28;45555;-96
2022/03/09 15:14:22;;;;;;;;;11.00;9.00;;;;;21.49;100.00;101530.78;5026653;28;45365;-95
2022/03/09 15:16:48;;;;;;;;;12.33;12.33;;;;;21.53;100.00;101539.72;5018836;28;47186;-96
2022/03/09 15:19:14;;;;;;;;;263.33;263.33;;;;;21.53;100.00;101529.03;5058306;28;51224;-95
2022/03/09 15:21:39;;;;;;;;;18.33;17.00;;;;;21.46;100.00;101525.41;5030911;28;45810;-96
2022/03/09 15:24:05;;;;;;;;;15.67;14.67;;;;;21.39;100.00;101529.75;5020873;28;45523;-96
2022/03/09 15:26:31;;;;;;;;;14.67;14.00;;;;;21.38;100.00;101538.66;5018827;28;47383;-95
2022/03/09 15:28:56;;;;;;;;;13.00;13.00;;;;;21.36;100.00;101532.41;5042338;28;45333;-96
2022/03/09 15:31:22;;;;;;;;;15.33;14.00;;;;;21.29;100.00;101530.53;5053541;28;45359;-96
2022/03/09 15:33:47;;;;;;;;;16.33;11.33;;;;;21.20;100.00;101529.53;5031767;28;45436;-96
2022/03/09 15:36:16;;;;;;;;;13.00;12.00;;;;;21.06;100.00;101521.34;5038376;28;48544;-96
2022/03/09 15:38:41;;;;;;;;;20.67;14.33;;;;;20.93;100.00;101522.91;5025778;28;45238;-96
2022/03/09 15:41:07;;;;;;;;;21.33;19.00;;;;;20.84;100.00;101514.78;5038288;28;45259;-96
2022/03/09 15:43:34;;;;;;;;;15.33;14.00;;;;;20.90;100.00;101524.66;5030048;28;45449;-96
2022/03/09 15:45:59;;;;;;;;;16.00;13.67;;;;;20.79;100.00;101524.47;5031430;28;47125;-96
2022/03/09 15:48:25;;;;;;;;;15.00;15.00;;;;;20.75;100.00;101531.50;5020418;28;45961;-96
2022/03/09 15:50:51;;;;;;;;;19.00;14.67;;;;;20.64;100.00;101523.38;5026733;28;45652;-96
2022/03/09 15:53:16;;;;;;;;;17.00;15.33;;;;;20.49;100.00;101511.56;5027088;28;45623;-96
2022/03/09 15:55:43;;;;;;;;;18.33;16.00;;;;;20.29;100.00;101498.81;5060413;28;47145;-96
2022/03/09 15:58:10;;;;;;;;;14.33;11.67;;;;;20.44;100.00;101518.59;5027332;28;47599;-96
2022/03/09 16:00:36;;;;;;;;;16.67;13.00;;;;;20.47;100.00;101523.06;5022378;28;45656;-96
2022/03/09 16:03:01;;;;;;;;;13.67;13.67;;;;;20.32;100.00;101514.88;5009377;28;45457;-96
2022/03/09 16:05:27;;;;;;;;;14.67;14.00;;;;;20.23;100.00;101521.81;5020201;28;48375;-96
2022/03/09 16:07:53;;;;;;;;;18.33;16.00;;;;;20.10;100.00;101516.22;5027267;28;46176;-96
2022/03/09 16:10:21;;;;;;;;;17.00;16.00;;;;;19.90;100.00;101527.41;5032948;28;45380;-96
2022/03/09 16:12:46;;;;;;;;;17.33;15.67;;;;;19.81;100.00;101528.13;5018598;28;45321;-96
2022/03/09 16:15:13;;;;;;;;;16.00;15.00;;;;;19.77;100.00;101540.47;5019526;28;46697;-96
2022/03/09 16:17:38;;;;;;;;;24.33;16.33;;;;;19.80;100.00;101536.97;5051492;28;45545;-96
2022/03/09 16:20:05;;;;;;;;;18.00;13.00;;;;;19.83;100.00;101534.38;5032627;28;45349;-96
2022/03/09 16:22:31;;;;;;;;;16.33;15.67;;;;;19.82;100.00;101534.34;5029072;28;45403;-96
2022/03/09 16:24:56;;;;;;;;;14.33;14.00;;;;;19.75;100.00;101534.22;5008969;28;48527;-96
2022/03/09 16:27:22;;;;;;;;;13.00;11.00;;;;;19.65;100.00;101534.91;5053395;28;45395;-96
2022/03/09 16:29:49;;;;;;;;;15.00;14.00;;;;;19.47;100.00;101520.38;5022733;28;45309;-96
2022/03/09 16:32:15;;;;;;;;;16.67;15.67;;;;;19.34;100.00;101532.50;5013570;28;45497;-96
2022/03/09 16:34:41;;;;;;;;;16.00;14.33;;;;;19.25;100.00;101535.00;5043718;28;46105;-96
2022/03/09 16:37:07;;;;;;;;;16.00;15.00;;;;;19.15;100.00;101532.06;5059891;28;45887;-96
2022/03/09 16:39:33;;;;;;;;;14.67;14.67;;;;;19.12;100.00;101523.16;5058516;28;45392;-96
2022/03/09 16:42:00;;;;;;;;;18.33;16.67;;;;;19.07;100.00;101531.03;5020571;28;45554;-96
2022/03/09 16:44:25;;;;;;;;;18.67;17.33;;;;;18.97;100.00;101527.22;5026059;28;47237;-96
2022/03/09 16:46:50;;;;;;;;;19.33;16.00;;;;;18.88;100.00;101530.59;5035847;28;45357;-96
2022/03/09 16:49:16;;;;;;;;;21.00;17.67;;;;;18.83;100.00;101533.16;5033209;28;45626;-96
2022/03/09 16:51:42;;;;;;;;;18.00;18.00;;;;;18.75;100.00;101532.97;5018452;28;45361;-96
2022/03/09 16:54:08;;;;;;;;;20.00;16.67;;;;;18.68;100.00;101531.03;5018327;28;48588;-96
2022/03/09 16:56:34;;;;;;;;;19.00;17.00;;;;;18.63;100.00;101530.00;5016666;28;45476;-95
2022/03/09 16:58:59;;;;;;;;;21.33;20.67;;;;;18.53;100.00;101532.44;5034233;28;45805;-96
2022/03/09 17:01:25;;;;;;;;;16.00;16.00;;;;;18.49;100.00;101533.22;5031094;28;45379;-96
2022/03/09 17:03:50;;;;;;;;;17.33;16.33;;;;;18.45;100.00;101531.31;5049441;28;47306;-96
2022/03/09 17:06:16;;;;;;;;;17.00;17.00;;;;;18.43;100.00;101536.63;5051314;28;46102;-96
2022/03/09 17:08:42;;;;;;;;;19.00;16.33;;;;;18.40;100.00;101543.63;5022945;28;45263;-96
2022/03/09 17:11:07;;;;;;;;;19.00;18.33;;;;;18.37;100.00;101543.53;5030598;28;45310;-96
2022/03/09 17:13:32;;;;;;;;;14.33;13.00;;;;;18.33;100.00;101536.34;5028226;28;48407;-96
2022/03/09 17:15:58;;;;;;;;;14.67;13.00;;;;;18.33;100.00;101539.00;5035810;28;45684;-95
2022/03/09 17:18:23;;;;;;;;;16.00;14.00;;;;;18.27;100.00;101543.28;5020216;28;45594;-96
2022/03/09 17:20:48;;;;;;;;;20.33;16.00;;;;;18.24;100.00;101542.31;5022837;28;45869;-95
2022/03/09 17:23:14;;;;;;;;;19.00;16.67;;;;;18.24;100.00;101550.31;5034412;28;47875;-96
2022/03/09 17:25:39;;;;;;;;;15.67;13.67;;;;;18.18;100.00;101546.59;5033246;28;46030;-95
2022/03/09 17:28:05;;;;;;;;;16.00;13.33;;;;;18.14;100.00;101555.31;5022973;28;44883;-96
2022/03/09 17:30:31;;;;;;;;;18.67;16.00;;;;;18.11;100.00;101557.00;5026913;28;45278;-96
2022/03/09 17:32:57;;;;;;;;;22.67;18.00;;;;;18.04;100.00;101553.28;5022432;28;47215;-96
2022/03/09 17:35:22;;;;;;;;;20.33;20.33;;;;;18.03;100.00;101570.97;5067335;28;45381;-95
2022/03/09 17:37:49;;;;;;;;;21.67;20.00;;;;;18.01;100.00;101571.81;5055510;28;45325;-95
2022/03/09 17:40:17;;;;;;;;;19.33;19.33;;;;;18.00;100.00;101567.31;5020713;28;45275;-95
2022/03/09 17:42:43;;;;;;;;;28.00;22.00;;;;;17.91;100.00;101578.63;5016785;28;47281;-94
2022/03/09 17:45:09;;;;;;;;;19.33;19.00;;;;;17.86;100.00;101571.41;5056448;28;45564;-94
2022/03/09 17:47:35;;;;;;;;;23.33;21.67;;;;;17.84;100.00;101577.53;5032151;28;45488;-96
2022/03/09 17:50:01;;;;;;;;;25.00;21.00;;;;;17.76;100.00;101569.34;5040598;28;45548;-96
2022/03/09 17:52:26;;;;;;;;;23.67;23.00;;;;;17.79;100.00;101582.69;5014833;28;47650;-96
2022/03/09 17:54:52;;;;;;;;;30.67;23.67;;;;;17.73;100.00;101588.72;5039493;28;45371;-94
2022/03/09 17:57:17;;;;;;;;;24.00;22.00;;;;;17.70;100.00;101593.06;5023485;28;45589;-95
2022/03/09 17:59:44;;;;;;;;;25.50;23.75;;;;;17.69;100.00;101594.81;5038492;28;45326;-96
2022/03/09 18:02:12;;;;;;;;;27.75;22.75;;;;;17.64;100.00;101594.69;5028600;28;48149;-95
2022/03/09 18:04:38;;;;;;;;;33.00;30.50;;;;;17.63;100.00;101599.94;5014277;28;45882;-94
2022/03/09 18:07:03;;;;;;;;;28.50;27.00;;;;;17.59;100.00;101598.06;5007438;28;45302;-94
2022/03/09 18:09:29;;;;;;;;;27.50;25.75;;;;;17.56;100.00;101598.84;5027215;28;44784;-95
2022/03/09 18:11:54;;;;;;;;;25.50;24.50;;;;;17.55;100.00;101598.81;5045080;28;47226;-96
2022/03/09 18:14:20;;;;;;;;;35.25;29.25;;;;;17.51;100.00;101603.13;5027367;28;45514;-96
2022/03/09 18:16:45;;;;;;;;;26.25;26.25;;;;;17.51;100.00;101606.69;5019595;28;45273;-96
2022/03/09 18:19:11;;;;;;;;;29.00;26.50;;;;;17.51;100.00;101608.44;5023211;28;45197;-96
2022/03/09 18:21:36;;;;;;;;;35.00;31.50;;;;;17.48;100.00;101603.03;5024143;28;46914;-95
2022/03/09 18:24:03;;;;;;;;;31.00;29.75;;;;;17.48;100.00;101600.38;5029787;28;45535;-92
2022/03/09 18:26:28;;;;;;;;;20.25;16.00;;;;;17.38;100.00;101594.78;5037317;28;46723;-93
2022/03/09 18:28:54;;;;;;;;;31.00;26.50;;;;;17.38;100.00;101608.06;5021331;28;45445;-94
2022/03/09 18:31:20;;;;;;;;;37.75;29.00;;;;;17.37;100.00;101603.59;5042900;28;47434;-94
2022/03/09 18:33:45;;;;;;;;;26.50;26.25;;;;;17.32;100.00;101597.25;5045692;28;45326;-95
2022/03/09 18:36:11;;;;;;;;;30.25;27.50;;;;;17.35;100.00;101601.75;5038583;28;45313;-96